sensor_id;sensor_type;location;lat;lon;timestamp;pressure;altitude;pressure_sealevel;temperature;humidity
27202;BME280;14717;46.924;15.474;2023-02-19T00:00:54;98082.38;;;1.73;100.00
27202;BME280;14717;46.924;15.474;2023-02-19T00:03:19;98072.78;;;1.82;100.00
27202;BME280;14717;46.924;15.474;2023-02-19T00:05:45;98074.38;;;1.90;100.00
27202;BME280;14717;46.924;15.474;2023-02-19T00:08:10;98076.63;;;1.93;100.00
27202;BME280;14717;46.924;15.474;2023-02-19T00:10:35;98081.50;;;1.91;100.00
27202;BME280;14717;46.924;15.474;2023-02-19T00:13:01;98091.03;;;1.82;100.00
27202;BME280;14717;46.924;15.474;2023-02-19T00:15:26;98091.16;;;1.87;100.00
27202;BME280;14717;46.924;15.474;2023-02-19T00:17:52;98084.19;;;1.79;100.00
27202;BME280;14717;46.924;15.474;2023-02-19T00:20:17;98093.75;;;1.82;100.00
27202;BME280;14717;46.924;15.474;2023-02-19T00:22:42;98096.47;;;1.82;100.00
27202;BME280;14717;46.924;15.474;2023-02-19T00:25:08;98089.00;;;1.66;100.00
27202;BME280;14717;46.924;15.474;2023-02-19T00:27:33;98090.53;;;1.73;100.00
27202;BME280;14717;46.924;15.474;2023-02-19T00:29:58;98086.19;;;1.84;100.00
27202;BME280;14717;46.924;15.474;2023-02-19T00:32:23;98090.09;;;1.76;100.00
27202;BME280;14717;46.924;15.474;2023-02-19T00:34:49;98083.41;;;1.61;100.00
27202;BME280;14717;46.924;15.474;2023-02-19T00:37:14;98074.31;;;1.67;100.00
27202;BME280;14717;46.924;15.474;2023-02-19T00:39:39;98083.06;;;1.69;100.00
27202;BME280;14717;46.924;15.474;2023-02-19T00:42:05;98085.66;;;1.64;99.94
27202;BME280;14717;46.924;15.474;2023-02-19T00:44:30;98082.66;;;1.54;100.00
27202;BME280;14717;46.924;15.474;2023-02-19T00:46:55;98093.09;;;1.57;100.00
27202;BME280;14717;46.924;15.474;2023-02-19T00:49:22;98091.72;;;1.66;100.00
27202;BME280;14717;46.924;15.474;2023-02-19T00:51:48;98093.03;;;1.75;100.00
27202;BME280;14717;46.924;15.474;2023-02-19T00:54:15;98087.69;;;1.68;99.57
27202;BME280;14717;46.924;15.474;2023-02-19T00:56:41;98074.66;;;1.70;99.80
27202;BME280;14717;46.924;15.474;2023-02-19T00:59:06;98082.38;;;1.73;99.92
27202;BME280;14717;46.924;15.474;2023-02-19T01:01:31;98080.19;;;1.64;100.00
27202;BME280;14717;46.924;15.474;2023-02-19T01:03:57;98079.06;;;1.42;100.00
27202;BME280;14717;46.924;15.474;2023-02-19T01:06:22;98072.84;;;1.53;100.00
27202;BME280;14717;46.924;15.474;2023-02-19T01:08:48;98073.03;;;1.40;100.00
27202;BME280;14717;46.924;15.474;2023-02-19T01:11:14;98067.50;;;1.47;100.00
27202;BME280;14717;46.924;15.474;2023-02-19T01:13:41;98057.53;;;1.41;100.00
27202;BME280;14717;46.924;15.474;2023-02-19T01:16:07;98039.34;;;1.41;100.00
27202;BME280;14717;46.924;15.474;2023-02-19T01:18:34;98042.50;;;1.38;100.00
27202;BME280;14717;46.924;15.474;2023-02-19T01:21:04;98045.03;;;1.51;100.00
27202;BME280;14717;46.924;15.474;2023-02-19T01:23:31;98051.22;;;1.58;100.00
27202;BME280;14717;46.924;15.474;2023-02-19T01:25:56;98049.91;;;1.61;100.00
27202;BME280;14717;46.924;15.474;2023-02-19T01:28:21;98057.75;;;1.68;100.00
27202;BME280;14717;46.924;15.474;2023-02-19T01:30:47;98054.91;;;1.75;99.77
27202;BME280;14717;46.924;15.474;2023-02-19T01:33:12;98058.91;;;1.72;100.00
27202;BME280;14717;46.924;15.474;2023-02-19T01:35:38;98058.38;;;1.82;100.00
27202;BME280;14717;46.924;15.474;2023-02-19T01:38:04;98058.50;;;1.87;100.00
27202;BME280;14717;46.924;15.474;2023-02-19T01:40:31;98058.50;;;1.87;100.00
27202;BME280;14717;46.924;15.474;2023-02-19T01:42:56;98064.75;;;1.76;100.00
27202;BME280;14717;46.924;15.474;2023-02-19T01:45:24;98069.31;;;1.64;100.00
27202;BME280;14717;46.924;15.474;2023-02-19T01:50:27;98054.66;;;1.65;100.00
27202;BME280;14717;46.924;15.474;2023-02-19T01:52:54;98049.81;;;1.67;100.00
27202;BME280;14717;46.924;15.474;2023-02-19T01:55:20;98054.09;;;1.74;100.00
27202;BME280;14717;46.924;15.474;2023-02-19T01:57:47;98047.91;;;1.67;100.00
27202;BME280;14717;46.924;15.474;2023-02-19T02:00:16;98049.94;;;1.72;100.00
27202;BME280;14717;46.924;15.474;2023-02-19T02:02:44;98049.22;;;1.65;100.00
27202;BME280;14717;46.924;15.474;2023-02-19T02:05:28;98040.06;;;1.48;100.00
27202;BME280;14717;46.924;15.474;2023-02-19T02:07:57;98039.94;;;1.43;100.00
27202;BME280;14717;46.924;15.474;2023-02-19T02:10:42;98041.34;;;1.46;100.00
27202;BME280;14717;46.924;15.474;2023-02-19T02:13:08;98035.34;;;1.55;100.00
27202;BME280;14717;46.924;15.474;2023-02-19T02:15:43;98033.34;;;1.62;100.00
27202;BME280;14717;46.924;15.474;2023-02-19T02:18:25;98025.75;;;1.64;100.00
27202;BME280;14717;46.924;15.474;2023-02-19T02:21:16;98025.41;;;1.61;100.00
27202;BME280;14717;46.924;15.474;2023-02-19T02:26:54;98025.38;;;1.49;100.00
27202;BME280;14717;46.924;15.474;2023-02-19T02:29:55;98028.63;;;1.69;100.00
27202;BME280;14717;46.924;15.474;2023-02-19T02:32:32;98027.34;;;1.71;100.00
27202;BME280;14717;46.924;15.474;2023-02-19T02:35:09;98041.66;;;1.78;100.00
27202;BME280;14717;46.924;15.474;2023-02-19T02:37:37;98039.06;;;1.83;100.00
27202;BME280;14717;46.924;15.474;2023-02-19T02:40:06;98045.22;;;1.79;99.66
27202;BME280;14717;46.924;15.474;2023-02-19T02:42:33;98048.28;;;1.71;99.70
27202;BME280;14717;46.924;15.474;2023-02-19T02:45:24;98034.44;;;1.61;99.23
27202;BME280;14717;46.924;15.474;2023-02-19T02:48:01;98027.06;;;1.62;100.00
27202;BME280;14717;46.924;15.474;2023-02-19T02:50:43;98029.31;;;1.53;100.00
27202;BME280;14717;46.924;15.474;2023-02-19T02:53:22;98036.88;;;1.51;100.00
27202;BME280;14717;46.924;15.474;2023-02-19T02:56:09;98029.06;;;1.55;100.00
27202;BME280;14717;46.924;15.474;2023-02-19T02:58:35;98021.97;;;1.54;100.00
27202;BME280;14717;46.924;15.474;2023-02-19T03:01:10;98027.38;;;1.42;100.00
27202;BME280;14717;46.924;15.474;2023-02-19T03:04:02;98019.44;;;1.41;100.00
27202;BME280;14717;46.924;15.474;2023-02-19T03:06:30;98012.69;;;1.32;100.00
27202;BME280;14717;46.924;15.474;2023-02-19T03:08:59;98010.78;;;1.32;100.00
27202;BME280;14717;46.924;15.474;2023-02-19T03:11:27;98005.59;;;1.42;100.00
27202;BME280;14717;46.924;15.474;2023-02-19T03:14:21;97999.25;;;1.48;100.00
27202;BME280;14717;46.924;15.474;2023-02-19T03:17:14;98000.09;;;1.60;100.00
27202;BME280;14717;46.924;15.474;2023-02-19T03:20:00;98005.09;;;1.74;100.00
27202;BME280;14717;46.924;15.474;2023-02-19T03:22:32;97994.41;;;1.62;100.00
27202;BME280;14717;46.924;15.474;2023-02-19T03:25:12;97993.00;;;1.70;100.00
27202;BME280;14717;46.924;15.474;2023-02-19T03:27:58;97998.69;;;1.80;100.00
27202;BME280;14717;46.924;15.474;2023-02-19T03:30:29;97996.56;;;1.82;100.00
27202;BME280;14717;46.924;15.474;2023-02-19T03:33:12;98002.25;;;1.69;100.00
27202;BME280;14717;46.924;15.474;2023-02-19T03:36:03;98005.41;;;1.55;100.00
27202;BME280;14717;46.924;15.474;2023-02-19T03:38:41;98001.56;;;1.33;100.00
27202;BME280;14717;46.924;15.474;2023-02-19T03:41:30;98002.47;;;1.27;100.00
27202;BME280;14717;46.924;15.474;2023-02-19T03:44:12;98006.28;;;1.27;100.00
27202;BME280;14717;46.924;15.474;2023-02-19T03:49:17;98004.59;;;1.55;100.00
27202;BME280;14717;46.924;15.474;2023-02-19T03:52:00;98011.69;;;1.67;100.00
27202;BME280;14717;46.924;15.474;2023-02-19T03:57:19;98006.38;;;1.72;100.00
27202;BME280;14717;46.924;15.474;2023-02-19T03:59:58;98004.25;;;1.74;100.00
27202;BME280;14717;46.924;15.474;2023-02-19T04:05:09;98008.19;;;1.78;100.00
27202;BME280;14717;46.924;15.474;2023-02-19T04:07:38;98008.31;;;1.83;100.00
27202;BME280;14717;46.924;15.474;2023-02-19T04:10:06;98006.63;;;1.82;100.00
27202;BME280;14717;46.924;15.474;2023-02-19T04:12:35;98002.03;;;1.71;100.00
27202;BME280;14717;46.924;15.474;2023-02-19T04:15:08;97999.75;;;1.68;100.00
27202;BME280;14717;46.924;15.474;2023-02-19T04:17:37;98002.34;;;1.63;100.00
27202;BME280;14717;46.924;15.474;2023-02-19T04:20:06;98005.75;;;1.59;100.00
27202;BME280;14717;46.924;15.474;2023-02-19T04:22:33;97988.72;;;1.52;100.00
27202;BME280;14717;46.924;15.474;2023-02-19T04:25:00;97998.28;;;1.54;100.00
27202;BME280;14717;46.924;15.474;2023-02-19T04:27:25;97998.28;;;1.54;100.00
27202;BME280;14717;46.924;15.474;2023-02-19T04:29:51;97993.94;;;1.53;100.00
27202;BME280;14717;46.924;15.474;2023-02-19T04:32:16;97996.06;;;1.51;100.00
27202;BME280;14717;46.924;15.474;2023-02-19T04:34:42;97985.03;;;1.46;100.00
27202;BME280;14717;46.924;15.474;2023-02-19T04:37:07;97984.91;;;1.53;100.00
27202;BME280;14717;46.924;15.474;2023-02-19T04:39:33;97986.03;;;1.63;100.00
27202;BME280;14717;46.924;15.474;2023-02-19T04:41:58;97984.38;;;1.73;100.00
27202;BME280;14717;46.924;15.474;2023-02-19T04:44:23;97986.94;;;1.57;100.00
27202;BME280;14717;46.924;15.474;2023-02-19T04:46:49;97975.00;;;1.58;100.00
27202;BME280;14717;46.924;15.474;2023-02-19T04:49:14;97978.56;;;1.70;100.00
27202;BME280;14717;46.924;15.474;2023-02-19T04:51:39;97981.06;;;1.71;100.00
27202;BME280;14717;46.924;15.474;2023-02-19T04:54:05;97991.50;;;1.74;100.00
27202;BME280;14717;46.924;15.474;2023-02-19T04:56:31;97978.94;;;1.73;100.00
27202;BME280;14717;46.924;15.474;2023-02-19T04:58:57;97976.53;;;1.54;100.00
27202;BME280;14717;46.924;15.474;2023-02-19T05:01:22;97979.50;;;1.64;100.00
27202;BME280;14717;46.924;15.474;2023-02-19T05:03:48;97977.97;;;1.68;100.00
27202;BME280;14717;46.924;15.474;2023-02-19T05:06:14;97978.69;;;1.75;100.00
27202;BME280;14717;46.924;15.474;2023-02-19T05:08:40;97984.03;;;1.81;100.00
27202;BME280;14717;46.924;15.474;2023-02-19T05:11:07;97996.34;;;1.84;100.00
27202;BME280;14717;46.924;15.474;2023-02-19T05:13:35;97994.78;;;1.65;100.00
27202;BME280;14717;46.924;15.474;2023-02-19T05:16:05;97985.81;;;1.76;100.00
27202;BME280;14717;46.924;15.474;2023-02-19T05:18:31;97988.88;;;1.68;100.00
27202;BME280;14717;46.924;15.474;2023-02-19T05:20:57;97987.66;;;1.64;100.00
27202;BME280;14717;46.924;15.474;2023-02-19T05:23:24;97988.75;;;1.74;100.00
27202;BME280;14717;46.924;15.474;2023-02-19T05:25:50;97982.47;;;1.74;100.00
27202;BME280;14717;46.924;15.474;2023-02-19T05:28:15;97974.19;;;1.80;100.00
27202;BME280;14717;46.924;15.474;2023-02-19T05:30:49;97975.63;;;1.83;100.00
27202;BME280;14717;46.924;15.474;2023-02-19T05:33:15;97969.22;;;1.89;100.00
27202;BME280;14717;46.924;15.474;2023-02-19T05:35:43;97971.34;;;1.87;100.00
27202;BME280;14717;46.924;15.474;2023-02-19T05:38:09;97981.78;;;1.90;100.00
27202;BME280;14717;46.924;15.474;2023-02-19T05:40:35;97990.28;;;1.82;100.00
27202;BME280;14717;46.924;15.474;2023-02-19T05:43:01;97989.72;;;1.91;100.00
27202;BME280;14717;46.924;15.474;2023-02-19T05:45:27;97981.44;;;1.86;100.00
27202;BME280;14717;46.924;15.474;2023-02-19T05:47:52;97973.97;;;1.82;100.00
27202;BME280;14717;46.924;15.474;2023-02-19T05:50:17;97966.28;;;1.90;100.00
27202;BME280;14717;46.924;15.474;2023-02-19T05:52:43;97960.72;;;1.97;100.00
27202;BME280;14717;46.924;15.474;2023-02-19T05:55:09;97962.03;;;2.06;100.00
27202;BME280;14717;46.924;15.474;2023-02-19T05:57:42;97983.94;;;2.11;100.00
27202;BME280;14717;46.924;15.474;2023-02-19T06:00:09;97975.16;;;2.09;100.00
27202;BME280;14717;46.924;15.474;2023-02-19T06:02:36;97976.34;;;2.12;100.00
27202;BME280;14717;46.924;15.474;2023-02-19T06:05:01;97985.00;;;2.21;100.00
27202;BME280;14717;46.924;15.474;2023-02-19T06:07:27;97984.66;;;2.17;100.00
27202;BME280;14717;46.924;15.474;2023-02-19T06:09:52;97989.50;;;2.04;100.00
27202;BME280;14717;46.924;15.474;2023-02-19T06:12:18;97987.72;;;2.10;100.00
27202;BME280;14717;46.924;15.474;2023-02-19T06:14:43;97987.94;;;2.19;100.00
27202;BME280;14717;46.924;15.474;2023-02-19T06:17:08;97997.78;;;2.20;100.00
27202;BME280;14717;46.924;15.474;2023-02-19T06:19:34;98000.28;;;2.11;100.00
27202;BME280;14717;46.924;15.474;2023-02-19T06:22:01;97986.53;;;2.17;100.00
27202;BME280;14717;46.924;15.474;2023-02-19T06:24:26;97988.41;;;2.28;100.00
27202;BME280;14717;46.924;15.474;2023-02-19T06:26:52;97984.41;;;2.30;100.00
27202;BME280;14717;46.924;15.474;2023-02-19T06:29:17;97985.09;;;2.37;100.00
27202;BME280;14717;46.924;15.474;2023-02-19T06:31:43;97992.47;;;2.25;100.00
27202;BME280;14717;46.924;15.474;2023-02-19T06:34:09;98002.75;;;2.23;100.00
27202;BME280;14717;46.924;15.474;2023-02-19T06:36:34;98007.97;;;2.36;100.00
27202;BME280;14717;46.924;15.474;2023-02-19T06:39:00;98005.00;;;2.38;100.00
27202;BME280;14717;46.924;15.474;2023-02-19T06:41:26;98011.03;;;2.40;100.00
27202;BME280;14717;46.924;15.474;2023-02-19T06:43:51;98007.84;;;2.31;100.00
27202;BME280;14717;46.924;15.474;2023-02-19T06:46:16;98013.28;;;2.31;100.00
27202;BME280;14717;46.924;15.474;2023-02-19T06:48:43;98006.78;;;2.44;100.00
27202;BME280;14717;46.924;15.474;2023-02-19T06:51:10;98008.91;;;2.53;100.00
27202;BME280;14717;46.924;15.474;2023-02-19T06:53:36;97999.53;;;2.49;100.00
27202;BME280;14717;46.924;15.474;2023-02-19T06:56:27;97999.53;;;2.60;100.00
27202;BME280;14717;46.924;15.474;2023-02-19T06:58:53;98003.28;;;2.71;100.00
27202;BME280;14717;46.924;15.474;2023-02-19T07:01:19;97996.88;;;2.77;100.00
27202;BME280;14717;46.924;15.474;2023-02-19T07:03:44;98004.13;;;2.83;100.00
27202;BME280;14717;46.924;15.474;2023-02-19T07:06:09;98008.59;;;2.89;100.00
27202;BME280;14717;46.924;15.474;2023-02-19T07:08:35;97996.16;;;2.93;100.00
27202;BME280;14717;46.924;15.474;2023-02-19T07:11:00;97995.97;;;2.99;100.00
27202;BME280;14717;46.924;15.474;2023-02-19T07:13:27;97996.34;;;3.02;100.00
27202;BME280;14717;46.924;15.474;2023-02-19T07:16:04;97992.72;;;3.13;100.00
27202;BME280;14717;46.924;15.474;2023-02-19T07:18:32;98000.09;;;3.13;100.00
27202;BME280;14717;46.924;15.474;2023-02-19T07:21:03;97995.81;;;3.17;100.00
27202;BME280;14717;46.924;15.474;2023-02-19T07:23:29;98007.66;;;3.22;100.00
27202;BME280;14717;46.924;15.474;2023-02-19T07:25:55;97990.53;;;3.27;100.00
27202;BME280;14717;46.924;15.474;2023-02-19T07:28:20;98012.81;;;3.35;100.00
27202;BME280;14717;46.924;15.474;2023-02-19T07:30:45;98009.44;;;3.44;100.00
27202;BME280;14717;46.924;15.474;2023-02-19T07:33:11;98009.41;;;3.28;100.00
27202;BME280;14717;46.924;15.474;2023-02-19T07:35:36;98007.91;;;3.21;100.00
27202;BME280;14717;46.924;15.474;2023-02-19T07:38:01;97998.19;;;3.13;100.00
27202;BME280;14717;46.924;15.474;2023-02-19T07:40:27;98007.09;;;3.09;100.00
27202;BME280;14717;46.924;15.474;2023-02-19T07:42:52;97994.75;;;3.18;100.00
27202;BME280;14717;46.924;15.474;2023-02-19T07:45:17;97995.06;;;3.21;100.00
27202;BME280;14717;46.924;15.474;2023-02-19T07:47:43;98000.06;;;3.24;100.00
27202;BME280;14717;46.924;15.474;2023-02-19T07:50:08;98000.06;;;3.24;100.00
27202;BME280;14717;46.924;15.474;2023-02-19T07:52:34;98002.22;;;3.22;100.00
27202;BME280;14717;46.924;15.474;2023-02-19T07:54:59;97992.16;;;3.39;100.00
27202;BME280;14717;46.924;15.474;2023-02-19T07:57:27;97975.72;;;3.50;100.00
27202;BME280;14717;46.924;15.474;2023-02-19T07:59:52;97977.78;;;3.60;100.00
27202;BME280;14717;46.924;15.474;2023-02-19T08:02:19;97987.06;;;3.59;100.00
27202;BME280;14717;46.924;15.474;2023-02-19T08:05:05;97982.91;;;3.56;100.00
27202;BME280;14717;46.924;15.474;2023-02-19T08:07:31;97981.44;;;3.65;100.00
27202;BME280;14717;46.924;15.474;2023-02-19T08:09:57;97979.13;;;3.74;99.67
27202;BME280;14717;46.924;15.474;2023-02-19T08:12:41;97981.63;;;3.91;99.18
27202;BME280;14717;46.924;15.474;2023-02-19T08:15:25;97987.75;;;3.98;98.15
27202;BME280;14717;46.924;15.474;2023-02-19T08:17:50;97993.13;;;3.93;97.82
27202;BME280;14717;46.924;15.474;2023-02-19T08:20:15;98003.16;;;4.04;98.93
27202;BME280;14717;46.924;15.474;2023-02-19T08:22:41;98008.34;;;4.06;98.17
27202;BME280;14717;46.924;15.474;2023-02-19T08:25:06;98000.06;;;4.17;98.86
27202;BME280;14717;46.924;15.474;2023-02-19T08:27:32;97989.06;;;4.28;99.04
27202;BME280;14717;46.924;15.474;2023-02-19T08:29:57;97989.78;;;4.40;98.78
27202;BME280;14717;46.924;15.474;2023-02-19T08:32:22;97986.69;;;4.53;97.97
27202;BME280;14717;46.924;15.474;2023-02-19T08:34:48;97986.00;;;4.63;98.26
27202;BME280;14717;46.924;15.474;2023-02-19T08:37:13;97983.09;;;4.69;97.49
27202;BME280;14717;46.924;15.474;2023-02-19T08:39:38;97980.50;;;4.79;96.94
27202;BME280;14717;46.924;15.474;2023-02-19T08:42:04;97971.00;;;4.86;96.89
27202;BME280;14717;46.924;15.474;2023-02-19T08:44:29;97984.50;;;4.93;96.90
27202;BME280;14717;46.924;15.474;2023-02-19T08:46:55;97994.75;;;5.02;97.12
27202;BME280;14717;46.924;15.474;2023-02-19T08:49:20;97992.66;;;5.09;96.79
27202;BME280;14717;46.924;15.474;2023-02-19T08:51:45;97986.16;;;5.15;96.35
27202;BME280;14717;46.924;15.474;2023-02-19T08:54:11;98000.16;;;5.18;96.67
27202;BME280;14717;46.924;15.474;2023-02-19T08:56:36;97989.59;;;5.27;96.31
27202;BME280;14717;46.924;15.474;2023-02-19T08:59:01;97974.03;;;5.32;95.73
27202;BME280;14717;46.924;15.474;2023-02-19T09:01:27;97963.47;;;5.41;95.38
27202;BME280;14717;46.924;15.474;2023-02-19T09:03:52;97955.31;;;5.46;95.47
27202;BME280;14717;46.924;15.474;2023-02-19T09:06:19;97985.25;;;5.57;95.58
27202;BME280;14717;46.924;15.474;2023-02-19T09:08:45;97971.59;;;5.62;94.86
27202;BME280;14717;46.924;15.474;2023-02-19T09:11:11;97977.44;;;5.65;93.50
27202;BME280;14717;46.924;15.474;2023-02-19T09:13:36;97972.06;;;5.75;93.44
27202;BME280;14717;46.924;15.474;2023-02-19T09:16:03;97971.63;;;5.88;93.60
27202;BME280;14717;46.924;15.474;2023-02-19T09:18:29;97970.03;;;5.92;92.92
27202;BME280;14717;46.924;15.474;2023-02-19T09:20:54;97976.69;;;6.01;93.17
27202;BME280;14717;46.924;15.474;2023-02-19T09:23:21;97975.41;;;6.13;93.21
27202;BME280;14717;46.924;15.474;2023-02-19T09:25:47;97965.34;;;6.24;93.55
27202;BME280;14717;46.924;15.474;2023-02-19T09:28:12;97965.94;;;6.31;92.43
27202;BME280;14717;46.924;15.474;2023-02-19T09:30:37;97960.06;;;6.53;92.47
27202;BME280;14717;46.924;15.474;2023-02-19T09:33:04;97966.81;;;6.77;91.32
27202;BME280;14717;46.924;15.474;2023-02-19T09:35:30;97969.31;;;6.88;90.00
27202;BME280;14717;46.924;15.474;2023-02-19T09:37:58;97964.78;;;7.09;89.72
27202;BME280;14717;46.924;15.474;2023-02-19T09:40:24;97964.84;;;7.33;85.80
27202;BME280;14717;46.924;15.474;2023-02-19T09:42:50;97968.44;;;7.39;82.91
27202;BME280;14717;46.924;15.474;2023-02-19T09:45:23;97967.16;;;7.66;82.38
27202;BME280;14717;46.924;15.474;2023-02-19T09:47:53;97962.50;;;7.96;81.36
27202;BME280;14717;46.924;15.474;2023-02-19T09:50:23;97952.38;;;8.21;81.21
27202;BME280;14717;46.924;15.474;2023-02-19T09:52:53;97947.16;;;8.40;80.46
27202;BME280;14717;46.924;15.474;2023-02-19T09:57:56;97939.59;;;8.90;78.54
27202;BME280;14717;46.924;15.474;2023-02-19T10:00:25;97935.69;;;9.05;76.08
27202;BME280;14717;46.924;15.474;2023-02-19T10:02:53;97942.22;;;9.24;76.32
27202;BME280;14717;46.924;15.474;2023-02-19T10:05:21;97931.34;;;9.47;75.92
27202;BME280;14717;46.924;15.474;2023-02-19T10:07:51;97928.47;;;9.67;74.90
27202;BME280;14717;46.924;15.474;2023-02-19T10:10:31;97934.16;;;9.80;74.19
27202;BME280;14717;46.924;15.474;2023-02-19T10:13:22;97929.31;;;10.11;73.50
27202;BME280;14717;46.924;15.474;2023-02-19T10:15:54;97934.03;;;10.33;73.08
27202;BME280;14717;46.924;15.474;2023-02-19T10:18:24;97928.19;;;10.40;71.36
27202;BME280;14717;46.924;15.474;2023-02-19T10:20:52;97923.66;;;10.54;69.85
27202;BME280;14717;46.924;15.474;2023-02-19T10:23:18;97929.69;;;10.84;71.03
27202;BME280;14717;46.924;15.474;2023-02-19T10:25:57;97926.47;;;11.00;71.57
27202;BME280;14717;46.924;15.474;2023-02-19T10:28:32;97932.50;;;11.25;68.51
27202;BME280;14717;46.924;15.474;2023-02-19T10:30:59;97941.41;;;11.46;66.18
27202;BME280;14717;46.924;15.474;2023-02-19T10:33:26;97932.34;;;11.63;65.62
27202;BME280;14717;46.924;15.474;2023-02-19T10:35:53;97925.50;;;11.74;66.33
27202;BME280;14717;46.924;15.474;2023-02-19T10:38:24;97941.53;;;11.77;66.04
27202;BME280;14717;46.924;15.474;2023-02-19T10:40:58;97936.44;;;11.84;66.56
27202;BME280;14717;46.924;15.474;2023-02-19T10:43:26;97932.84;;;11.65;65.76
27202;BME280;14717;46.924;15.474;2023-02-19T10:46:00;97926.44;;;11.88;65.40
27202;BME280;14717;46.924;15.474;2023-02-19T10:48:29;97920.28;;;11.91;65.90
27202;BME280;14717;46.924;15.474;2023-02-19T10:50:59;97934.09;;;11.91;65.45
27202;BME280;14717;46.924;15.474;2023-02-19T10:53:40;97929.25;;;12.01;63.85
27202;BME280;14717;46.924;15.474;2023-02-19T10:56:09;97921.03;;;12.15;64.73
27202;BME280;14717;46.924;15.474;2023-02-19T10:58:35;97917.53;;;12.41;62.59
27202;BME280;14717;46.924;15.474;2023-02-19T11:01:29;97904.63;;;12.63;62.14
27202;BME280;14717;46.924;15.474;2023-02-19T11:04:15;97890.91;;;12.72;62.08
27202;BME280;14717;46.924;15.474;2023-02-19T11:06:41;97884.09;;;12.96;61.59
27202;BME280;14717;46.924;15.474;2023-02-19T11:09:23;97892.50;;;12.91;61.35
27202;BME280;14717;46.924;15.474;2023-02-19T11:11:51;97883.06;;;13.05;60.53
27202;BME280;14717;46.924;15.474;2023-02-19T11:14:19;97875.44;;;13.37;59.17
27202;BME280;14717;46.924;15.474;2023-02-19T11:16:49;97881.50;;;13.39;58.66
27202;BME280;14717;46.924;15.474;2023-02-19T11:19:42;97877.53;;;13.67;58.96
27202;BME280;14717;46.924;15.474;2023-02-19T11:22:26;97877.59;;;13.89;57.97
27202;BME280;14717;46.924;15.474;2023-02-19T11:24:53;97865.63;;;14.02;57.19
27202;BME280;14717;46.924;15.474;2023-02-19T11:27:23;97873.94;;;14.15;56.56
27202;BME280;14717;46.924;15.474;2023-02-19T11:29:49;97869.81;;;14.34;55.68
27202;BME280;14717;46.924;15.474;2023-02-19T11:32:26;97859.59;;;14.43;54.75
27202;BME280;14717;46.924;15.474;2023-02-19T11:35:11;97854.00;;;14.65;56.74
27202;BME280;14717;46.924;15.474;2023-02-19T11:37:52;97857.16;;;14.80;53.10
27202;BME280;14717;46.924;15.474;2023-02-19T11:40:19;97843.78;;;14.82;52.50
27202;BME280;14717;46.924;15.474;2023-02-19T11:52:02;97846.19;;;15.61;50.04
27202;BME280;14717;46.924;15.474;2023-02-19T11:54:49;97833.91;;;15.70;50.87
27202;BME280;14717;46.924;15.474;2023-02-19T12:22:26;97830.41;;;17.77;41.56
27202;BME280;14717;46.924;15.474;2023-02-19T12:27:40;97816.91;;;18.39;35.02
27202;BME280;14717;46.924;15.474;2023-02-19T12:30:27;97816.47;;;18.49;34.33
27202;BME280;14717;46.924;15.474;2023-02-19T12:35:46;97830.25;;;18.54;34.14
27202;BME280;14717;46.924;15.474;2023-02-19T12:38:57;97809.75;;;18.62;34.02
27202;BME280;14717;46.924;15.474;2023-02-19T12:44:09;97833.13;;;18.78;35.95
27202;BME280;14717;46.924;15.474;2023-02-19T12:46:43;97837.31;;;18.72;33.07
27202;BME280;14717;46.924;15.474;2023-02-19T12:49:14;97823.53;;;18.67;31.97
27202;BME280;14717;46.924;15.474;2023-02-19T12:51:49;97831.19;;;18.58;32.22
27202;BME280;14717;46.924;15.474;2023-02-19T12:54:29;97835.41;;;18.64;32.70
27202;BME280;14717;46.924;15.474;2023-02-19T12:59:54;97823.97;;;18.57;31.50
27202;BME280;14717;46.924;15.474;2023-02-19T13:02:33;97809.06;;;18.65;32.27
27202;BME280;14717;46.924;15.474;2023-02-19T13:05:21;97811.44;;;18.75;32.94
27202;BME280;14717;46.924;15.474;2023-02-19T13:12:54;97802.81;;;18.92;31.89
27202;BME280;14717;46.924;15.474;2023-02-19T13:15:38;97798.81;;;18.69;31.84
27202;BME280;14717;46.924;15.474;2023-02-19T13:18:33;97806.28;;;18.65;31.49
27202;BME280;14717;46.924;15.474;2023-02-19T13:20:56;97804.28;;;18.66;32.03
27202;BME280;14717;46.924;15.474;2023-02-19T13:36:37;97852.25;;;17.54;38.02
27202;BME280;14717;46.924;15.474;2023-02-19T13:39:03;97861.56;;;17.30;39.20
27202;BME280;14717;46.924;15.474;2023-02-19T13:41:34;97860.47;;;17.14;38.65
27202;BME280;14717;46.924;15.474;2023-02-19T13:44:04;97859.38;;;16.98;39.60
27202;BME280;14717;46.924;15.474;2023-02-19T13:46:35;97862.69;;;16.92;39.66
27202;BME280;14717;46.924;15.474;2023-02-19T13:51:53;97853.16;;;16.93;39.45
27202;BME280;14717;46.924;15.474;2023-02-19T13:54:30;97848.88;;;16.95;39.73
27202;BME280;14717;46.924;15.474;2023-02-19T13:59:45;97863.19;;;16.85;40.66
27202;BME280;14717;46.924;15.474;2023-02-19T14:14:37;97893.28;;;16.46;40.97
27202;BME280;14717;46.924;15.474;2023-02-19T14:27:53;97910.03;;;16.46;42.17
27202;BME280;14717;46.924;15.474;2023-02-19T14:30:22;97922.19;;;16.42;41.88
27202;BME280;14717;46.924;15.474;2023-02-19T14:32:49;97925.97;;;16.37;41.83
27202;BME280;14717;46.924;15.474;2023-02-19T14:35:23;97929.88;;;16.28;42.48
27202;BME280;14717;46.924;15.474;2023-02-19T14:37:50;97932.47;;;16.16;42.14
27202;BME280;14717;46.924;15.474;2023-02-19T14:40:37;97934.28;;;16.04;42.48
27202;BME280;14717;46.924;15.474;2023-02-19T14:43:06;97932.31;;;16.04;42.54
27202;BME280;14717;46.924;15.474;2023-02-19T14:45:42;97941.47;;;15.96;43.26
27202;BME280;14717;46.924;15.474;2023-02-19T14:48:37;97951.81;;;15.96;42.75
27202;BME280;14717;46.924;15.474;2023-02-19T14:51:22;97962.94;;;15.96;42.78
27202;BME280;14717;46.924;15.474;2023-02-19T14:53:52;97960.50;;;15.94;42.82
27202;BME280;14717;46.924;15.474;2023-02-19T14:56:27;97969.97;;;15.93;42.57